Lontzen, Belgium
Current Conditions -  °F | °C
As of 2:25 PM on Friday 24 Oct 2014 (Local Time) from EBLB Reporting Station
Broken Clouds Broken Clouds  
Wind Chill: 46°   Ceiling: 1800
Heat Index: 48°   Visibility: 6mi
Dew Point: 45°   Wind: 6mph
Humidity: 87%   Direction: 220°SW
Pressure: 30.12"   Gusts: NA
Location:  50.68°N, 6.01°E
Report Text: EBLB 241225Z AUTO 22005KT 9999 FEW010/// SCT014/// BKN018/// 09/07 Q1020 GRN
Loading
Personal Weather Stations






























Interactive Weather Map New forecast layout! Learn more

10-Day Weather Forecast

Advertisements
Track Severe Weather on mobile